Time;durP1;ratioP1;P1;durP2;ratioP2;P2;SDS_P1;SDS_P2;PMS_P1;PMS_P2;Temp;Humidity;BMP_temperature;BMP_pressure;BME280_temperature;BME280_humidity;BME280_pressure;Samples;Min_cycle;Max_cycle;Signal;HPM_P1;HPM_P2
2023/10/02 00:02:05;;;;;;;21.75;12.10;;;;;;;16.40;100.00;101756.50;4993194;28;20085;-47
2023/10/02 00:04:34;;;;;;;20.25;11.93;;;;;;;16.67;100.00;101806.72;4993004;28;20038;-48
2023/10/02 00:07:05;;;;;;;18.77;12.27;;;;;;;16.74;100.00;101817.97;4992048;28;20038;-46
2023/10/02 00:09:37;;;;;;;24.25;12.27;;;;;;;16.72;100.00;101804.72;4978928;28;20038;-50
2023/10/02 00:12:13;;;;;;;19.15;12.35;;;;;;;16.26;100.00;101723.38;4972490;28;20031;-45
2023/10/02 00:14:41;;;;;;;21.13;12.65;;;;;;;16.44;100.00;101755.44;4972276;28;20053;-48
2023/10/02 00:17:13;;;;;;;20.02;12.95;;;;;;;16.73;100.00;101821.56;4973485;28;20043;-49
2023/10/02 00:19:49;;;;;;;19.17;11.73;;;;;;;16.73;100.00;101833.06;4973554;28;20051;-49
2023/10/02 00:25:07;;;;;;;20.60;12.60;;;;;;;16.57;100.00;101831.13;4972722;28;20067;-45
2023/10/02 00:27:34;;;;;;;19.70;13.13;;;;;;;16.54;100.00;101834.75;4978153;28;20539;-48
2023/10/02 00:30:00;;;;;;;20.50;12.38;;;;;;;16.07;100.00;101766.72;4992697;28;20557;-46
2023/10/02 00:32:26;;;;;;;20.80;13.60;;;;;;;16.33;100.00;101809.91;4992807;28;20030;-47
2023/10/02 00:34:53;;;;;;;22.27;13.25;;;;;;;16.28;100.00;101819.84;4991562;28;20026;-46
2023/10/02 00:37:19;;;;;;;24.83;14.35;;;;;;;16.01;100.00;101770.50;4991208;28;20054;-48
2023/10/02 00:39:47;;;;;;;21.08;14.55;;;;;;;16.26;100.00;101827.00;4992611;28;20053;-47
2023/10/02 00:42:16;;;;;;;22.33;13.93;;;;;;;15.94;100.00;101776.09;4975490;28;20069;-46
2023/10/02 00:44:52;;;;;;;20.13;13.45;;;;;;;15.80;100.00;101751.88;4992017;28;20477;-46
2023/10/02 00:47:44;;;;;;;25.27;13.57;;;;;;;15.72;100.00;101744.22;4991345;28;20042;-49
2023/10/02 00:50:17;;;;;;;23.08;13.85;;;;;;;16.11;100.00;101829.44;4992294;28;20510;-47
2023/10/02 00:52:47;;;;;;;23.48;14.20;;;;;;;16.02;100.00;101797.91;4992448;28;20427;-46
2023/10/02 00:55:15;;;;;;;23.73;14.80;;;;;;;15.90;100.00;101796.63;4992693;28;20038;-48
2023/10/02 00:57:41;;;;;;;24.65;14.40;;;;;;;15.75;100.00;101766.22;4992233;28;20031;-45
2023/10/02 01:00:17;;;;;;;27.95;15.65;;;;;;;16.00;100.00;101807.72;4991371;28;20034;-47
2023/10/02 01:02:51;;;;;;;23.30;15.48;;;;;;;16.04;100.00;101823.47;4990872;28;20433;-48
2023/10/02 01:05:30;;;;;;;25.77;15.13;;;;;;;16.00;100.00;101802.41;4991063;28;20038;-46
2023/10/02 01:07:56;;;;;;;20.67;14.68;;;;;;;15.94;100.00;101792.03;4992555;28;20030;-48
2023/10/02 01:10:23;;;;;;;26.83;15.38;;;;;;;15.62;100.00;101733.09;4992546;28;20042;-49
2023/10/02 01:12:50;;;;;;;23.25;14.38;;;;;;;15.66;100.00;101750.66;4992439;28;20035;-47
2023/10/02 01:15:19;;;;;;;23.80;14.27;;;;;;;15.96;100.00;101812.31;4992223;28;20058;-47
2023/10/02 01:17:47;;;;;;;28.38;15.15;;;;;;;15.86;100.00;101778.19;4991339;28;20046;-46
2023/10/02 01:23:11;;;;;;;27.05;14.82;;;;;;;15.58;100.00;101720.03;4992079;28;20133;-47
2023/10/02 01:25:39;;;;;;;24.95;16.02;;;;;;;16.06;100.00;101796.84;4990986;28;20113;-49
2023/10/02 01:28:05;;;;;;;26.13;15.25;;;;;;;16.10;100.00;101798.47;4990867;28;20133;-48
2023/10/02 01:30:30;;;;;;;23.90;14.95;;;;;;;15.74;100.00;101734.41;4992238;28;20113;-49
2023/10/02 01:33:12;;;;;;;22.88;14.88;;;;;;;15.88;100.00;101769.22;4992359;28;20030;-48
2023/10/02 01:35:48;;;;;;;22.00;15.15;;;;;;;16.05;100.00;101790.66;4994681;28;20458;-47
2023/10/02 01:38:31;;;;;;;23.40;14.90;;;;;;;15.58;100.00;101722.69;4994449;28;20039;-48
2023/10/02 01:41:04;;;;;;;26.48;15.65;;;;;;;16.03;100.00;101795.19;4995471;28;20033;-52
2023/10/02 01:43:45;;;;;;;22.85;14.48;;;;;;;15.94;100.00;101784.91;4994368;28;20033;-49
2023/10/02 01:46:17;;;;;;;22.48;13.68;;;;;;;15.90;100.00;101772.72;4995513;28;20029;-47
2023/10/02 01:48:48;;;;;;;23.08;14.20;;;;;;;15.83;100.00;101784.47;4994211;28;20078;-48
2023/10/02 01:51:20;;;;;;;24.20;14.70;;;;;;;15.87;100.00;101786.09;4993279;28;20115;-46
2023/10/02 01:53:49;;;;;;;23.88;14.35;;;;;;;15.42;100.00;101740.06;4995354;28;20065;-50
2023/10/02 01:56:16;;;;;;;22.48;15.52;;;;;;;15.80;100.00;101802.31;4994242;28;20038;-47
2023/10/02 01:58:43;;;;;;;20.27;13.73;;;;;;;15.27;100.00;101724.72;4995180;28;20060;-46
2023/10/02 02:01:09;;;;;;;25.35;16.25;;;;;;;14.55;100.00;101612.56;4995159;28;20027;-51
2023/10/02 02:03:39;;;;;;;23.75;15.00;;;;;;;15.57;100.00;101776.66;4994073;28;20070;-46
2023/10/02 02:06:11;;;;;;;27.17;16.13;;;;;;;15.69;100.00;101800.09;4994123;28;20030;-46
2023/10/02 02:08:38;;;;;;;27.67;15.52;;;;;;;15.65;100.00;101793.16;4995096;28;20390;-50
2023/10/02 02:11:20;;;;;;;24.80;15.38;;;;;;;15.20;100.00;101719.69;4995166;28;20065;-49
2023/10/02 02:13:55;;;;;;;26.75;15.70;;;;;;;15.55;100.00;101778.53;4994842;28;20068;-49
2023/10/02 02:16:33;;;;;;;33.05;15.85;;;;;;;15.57;100.00;101787.28;4993674;28;20050;-51
2023/10/02 02:18:59;;;;;;;26.83;15.07;;;;;;;15.40;100.00;101753.41;4992948;28;20035;-48
2023/10/02 02:21:28;;;;;;;24.75;16.15;;;;;;;15.55;100.00;101782.03;4994679;28;20050;-49
2023/10/02 02:24:03;;;;;;;26.33;15.48;;;;;;;15.50;100.00;101781.34;4994675;28;20117;-46
2023/10/02 02:26:36;;;;;;;23.15;15.77;;;;;;;15.51;100.00;101780.41;4994923;28;20109;-50
2023/10/02 02:29:02;;;;;;;24.42;15.98;;;;;;;15.54;100.00;101790.91;4993565;28;20502;-46
2023/10/02 02:31:32;;;;;;;28.10;16.63;;;;;;;15.15;100.00;101721.59;4993491;28;20085;-48
2023/10/02 02:34:02;;;;;;;26.15;16.50;;;;;;;15.43;100.00;101765.69;4993610;28;20504;-50
2023/10/02 02:36:34;;;;;;;29.83;18.23;;;;;;;15.54;100.00;101782.97;4994393;28;20072;-48
2023/10/02 02:39:15;;;;;;;25.92;16.23;;;;;;;15.13;100.00;101710.19;4993678;28;20038;-49
2023/10/02 02:42:08;;;;;;;24.75;16.73;;;;;;;15.54;100.00;101769.69;4993574;28;20038;-48
2023/10/02 02:44:43;;;;;;;26.88;14.98;;;;;;;15.53;100.00;101769.72;4994464;28;20035;-48
2023/10/02 02:47:12;;;;;;;26.90;16.33;;;;;;;15.51;100.00;101774.25;4993840;28;20026;-50
2023/10/02 02:49:48;;;;;;;25.77;16.90;;;;;;;15.50;100.00;101778.69;4992314;28;20038;-51
2023/10/02 02:52:19;;;;;;;26.60;16.17;;;;;;;15.02;100.00;101704.44;4994218;28;20491;-47
2023/10/02 02:54:47;;;;;;;28.85;15.52;;;;;;;15.36;100.00;101772.13;4994191;28;20042;-46
2023/10/02 02:57:25;;;;;;;26.88;16.80;;;;;;;15.22;100.00;101746.13;4994014;28;20074;-45
2023/10/02 02:59:52;;;;;;;26.10;15.52;;;;;;;14.84;100.00;101683.91;4994144;28;20046;-46
2023/10/02 03:02:22;;;;;;;25.80;17.05;;;;;;;14.97;100.00;101714.31;4993958;28;20125;-48
2023/10/02 03:04:50;;;;;;;25.55;16.13;;;;;;;15.06;100.00;101732.56;4993063;28;20038;-45
2023/10/02 03:07:36;;;;;;;27.35;15.93;;;;;;;15.32;100.00;101765.22;4992792;28;20173;-45
2023/10/02 03:10:02;;;;;;;32.33;18.50;;;;;;;15.35;100.00;101781.91;4994042;28;20034;-47
2023/10/02 03:12:28;;;;;;;29.45;17.23;;;;;;;15.02;100.00;101720.34;4992755;28;20113;-46
2023/10/02 03:14:55;;;;;;;29.58;17.83;;;;;;;15.36;100.00;101777.44;4992240;28;20033;-50
2023/10/02 03:17:28;;;;;;;27.23;17.38;;;;;;;15.32;100.00;101766.09;4992531;28;20031;-46
2023/10/02 03:20:00;;;;;;;26.52;16.80;;;;;;;15.32;100.00;101773.19;4993843;28;20478;-49
2023/10/02 03:22:27;;;;;;;29.85;16.90;;;;;;;14.95;100.00;101710.00;4991454;28;20046;-47
2023/10/02 03:24:55;;;;;;;31.67;18.40;;;;;;;14.96;100.00;101703.78;4992747;28;20057;-47
2023/10/02 03:27:21;;;;;;;29.95;17.05;;;;;;;15.31;100.00;101763.47;4993575;28;20490;-49
2023/10/02 03:29:49;;;;;;;29.05;17.48;;;;;;;15.33;100.00;101757.19;4992263;28;20038;-47
2023/10/02 03:32:14;;;;;;;25.17;15.60;;;;;;;14.94;100.00;101695.91;4993963;28;20038;-49
2023/10/02 03:34:41;;;;;;;29.95;17.42;;;;;;;15.35;100.00;101773.06;4993303;28;20117;-47
2023/10/02 03:37:21;;;;;;;29.73;18.20;;;;;;;14.95;100.00;101691.44;4993333;28;20034;-50
2023/10/02 03:39:59;;;;;;;32.13;18.50;;;;;;;14.96;100.00;101683.47;4992339;28;20034;-48
2023/10/02 03:42:30;;;;;;;30.33;17.67;;;;;;;14.99;100.00;101685.13;4993215;28;20050;-46
2023/10/02 03:44:56;;;;;;;32.13;17.58;;;;;;;15.50;100.00;101761.91;4993508;28;20026;-47
2023/10/02 03:47:22;;;;;;;29.73;18.33;;;;;;;15.57;100.00;101766.91;4992556;28;20050;-48
2023/10/02 03:49:49;;;;;;;27.23;17.48;;;;;;;15.61;100.00;101757.06;4993156;28;20046;-47
2023/10/02 03:52:17;;;;;;;30.58;17.52;;;;;;;15.34;100.00;101712.97;4992267;28;20170;-48
2023/10/02 03:54:43;;;;;;;27.38;16.30;;;;;;;15.23;100.00;101686.88;4993189;28;20034;-47
2023/10/02 03:59:54;;;;;;;28.20;16.85;;;;;;;15.37;100.00;101732.28;4993207;28;20069;-48
2023/10/02 04:02:25;;;;;;;24.17;16.02;;;;;;;15.39;100.00;101745.47;4993229;28;20050;-49
2023/10/02 04:04:51;;;;;;;26.10;16.38;;;;;;;15.35;100.00;101752.72;4992930;28;20026;-47
2023/10/02 04:07:20;;;;;;;26.40;16.02;;;;;;;15.32;100.00;101746.66;4993158;28;20026;-49
2023/10/02 04:09:50;;;;;;;27.83;15.93;;;;;;;15.09;100.00;101713.03;4993114;28;20506;-47
2023/10/02 04:12:17;;;;;;;31.35;16.35;;;;;;;15.25;100.00;101740.72;4991976;28;20038;-45
2023/10/02 04:14:43;;;;;;;26.55;15.90;;;;;;;15.22;100.00;101732.88;4973186;28;20042;-47
2023/10/02 04:17:10;;;;;;;29.45;17.60;;;;;;;14.80;100.00;101681.44;4973626;28;20034;-46
2023/10/02 04:19:48;;;;;;;26.10;15.73;;;;;;;14.85;100.00;101671.53;4973514;28;20027;-45
2023/10/02 04:22:22;;;;;;;25.35;14.60;;;;;;;15.29;100.00;101752.06;4973443;28;20045;-49
2023/10/02 04:25:06;;;;;;;29.23;16.23;;;;;;;15.20;100.00;101732.94;4973265;28;20098;-49
2023/10/02 04:32:59;;;;;;;;;;;;;;;15.21;100.00;101741.72;4991948;28;20113;-48
2023/10/02 04:35:44;;;;;;;24.95;15.10;;;;;;;14.94;100.00;101705.66;4991620;28;19925;-44
2023/10/02 04:38:13;;;;;;;24.20;15.55;;;;;;;14.77;100.00;101685.03;4992813;28;20445;-46
2023/10/02 04:40:49;;;;;;;23.67;14.70;;;;;;;15.11;100.00;101745.66;4991253;28;20038;-46
2023/10/02 04:43:28;;;;;;;27.17;15.13;;;;;;;15.07;100.00;101744.91;4992514;28;20038;-47
2023/10/02 04:46:08;;;;;;;25.67;14.88;;;;;;;15.05;100.00;101753.84;4983351;28;20150;-48
2023/10/02 04:48:39;;;;;;;23.33;14.75;;;;;;;15.00;100.00;101755.81;4973257;28;20039;-47
2023/10/02 04:51:12;;;;;;;25.60;14.95;;;;;;;14.58;100.00;101682.19;4973121;28;20129;-48
2023/10/02 04:53:42;;;;;;;31.08;17.30;;;;;;;14.92;100.00;101750.75;4972941;28;20479;-48
2023/10/02 04:56:21;;;;;;;27.60;15.32;;;;;;;14.56;100.00;101685.81;4972836;28;20039;-50
2023/10/02 04:58:50;;;;;;;26.98;15.75;;;;;;;14.96;100.00;101767.41;4973033;28;20039;-47
2023/10/02 05:01:34;;;;;;;24.92;15.38;;;;;;;14.97;100.00;101762.06;4980893;28;20042;-49
2023/10/02 05:04:03;;;;;;;23.58;14.88;;;;;;;14.90;100.00;101755.25;4977186;28;20034;-48
2023/10/02 05:09:38;;;;;;;30.27;16.40;;;;;;;14.57;100.00;101693.69;4972307;28;20058;-47
2023/10/02 05:12:04;;;;;;;31.73;17.25;;;;;;;14.63;100.00;101689.97;4992780;28;20086;-47
2023/10/02 05:14:47;;;;;;;30.55;17.80;;;;;;;15.00;100.00;101767.25;4995970;28;20414;-48
2023/10/02 05:17:38;;;;;;;30.10;17.90;;;;;;;14.95;100.00;101729.44;4995658;28;20062;-47
2023/10/02 05:20:04;;;;;;;29.73;16.55;;;;;;;14.92;100.00;101718.06;4995092;28;20053;-47
2023/10/02 05:22:31;;;;;;;31.10;16.95;;;;;;;14.84;100.00;101693.63;4995997;28;20046;-48
2023/10/02 05:25:04;;;;;;;30.30;17.08;;;;;;;15.13;100.00;101755.28;4995960;28;20076;-47
2023/10/02 05:27:31;;;;;;;32.90;19.20;;;;;;;14.74;100.00;101689.59;4994373;28;20485;-46
2023/10/02 05:30:00;;;;;;;26.75;17.42;;;;;;;15.10;100.00;101750.09;4995930;28;20035;-48
2023/10/02 05:32:35;;;;;;;30.70;18.83;;;;;;;14.88;100.00;101719.13;4995903;28;20041;-45
2023/10/02 05:35:23;;;;;;;34.17;19.55;;;;;;;14.60;100.00;101682.13;4994826;28;20483;-47
2023/10/02 05:37:51;;;;;;;30.88;16.88;;;;;;;15.03;100.00;101758.34;4995673;28;20087;-48
2023/10/02 05:43:09;;;;;;;33.28;19.45;;;;;;;14.96;100.00;101738.25;4995716;28;20116;-49
2023/10/02 05:50:52;;;;;;;33.92;20.05;;;;;;;15.20;100.00;101762.09;4994543;28;20494;-48
2023/10/02 05:53:19;;;;;;;32.00;18.42;;;;;;;15.22;100.00;101762.03;4995630;28;20030;-48
2023/10/02 05:56:05;;;;;;;36.40;19.48;;;;;;;14.90;100.00;101718.16;4995426;28;20121;-49
2023/10/02 05:58:33;;;;;;;38.10;19.83;;;;;;;14.94;100.00;101705.66;4995298;28;20041;-53
2023/10/02 06:01:06;;;;;;;38.65;20.17;;;;;;;15.28;100.00;101767.13;4995383;28;20026;-49
2023/10/02 06:03:36;;;;;;;34.05;18.17;;;;;;;15.39;100.00;101777.31;4995263;28;20027;-48
2023/10/02 06:06:23;;;;;;;30.98;17.88;;;;;;;15.37;100.00;101777.38;4993173;28;20054;-50
2023/10/02 06:08:56;;;;;;;32.05;18.08;;;;;;;14.99;100.00;101715.16;4994953;28;20045;-52
2023/10/02 06:11:25;;;;;;;29.88;17.60;;;;;;;15.42;100.00;101782.50;4993683;28;20036;-49
2023/10/02 06:14:10;;;;;;;37.92;21.55;;;;;;;15.45;100.00;101780.63;4992372;28;20077;-49
2023/10/02 06:16:40;;;;;;;34.30;19.90;;;;;;;15.13;100.00;101715.50;4988661;28;20042;-46
2023/10/02 06:19:07;;;;;;;30.67;19.23;;;;;;;15.57;100.00;101782.84;4992269;28;20052;-46
2023/10/02 06:21:45;;;;;;;36.08;18.80;;;;;;;15.59;100.00;101778.34;4974503;28;20096;-48
2023/10/02 06:24:15;;;;;;;29.85;17.70;;;;;;;15.24;100.00;101715.09;4993415;28;20041;-45
2023/10/02 06:26:49;;;;;;;36.83;18.27;;;;;;;15.29;100.00;101728.19;4986080;28;20406;-49
2023/10/02 06:29:22;;;;;;;30.00;18.67;;;;;;;15.44;100.00;101759.47;4975398;28;20038;-49
2023/10/02 06:32:02;;;;;;;33.05;19.08;;;;;;;15.23;100.00;101726.66;4980390;28;20375;-46
2023/10/02 06:34:38;;;;;;;34.58;19.15;;;;;;;15.16;100.00;101709.22;4994415;28;20030;-48
2023/10/02 06:37:11;;;;;;;33.67;19.70;;;;;;;15.72;100.00;101798.19;4992965;28;20065;-47
2023/10/02 06:39:39;;;;;;;31.02;19.00;;;;;;;15.75;100.00;101798.06;4992704;28;20030;-46
2023/10/02 06:42:06;;;;;;;32.63;19.10;;;;;;;15.67;100.00;101804.59;4981668;28;20034;-47
2023/10/02 06:44:41;;;;;;;34.28;20.40;;;;;;;15.65;100.00;101785.19;4992674;28;20130;-47
2023/10/02 06:47:14;;;;;;;32.90;19.55;;;;;;;15.52;100.00;101726.44;4981017;28;20027;-50
2023/10/02 06:49:41;;;;;;;33.22;19.13;;;;;;;16.03;100.00;101800.50;4983446;28;20038;-47
2023/10/02 06:52:16;;;;;;;38.42;21.42;;;;;;;15.79;100.00;101731.59;4992956;28;20117;-48
2023/10/02 06:54:46;;;;;;;39.35;20.40;;;;;;;15.79;100.00;101705.88;4981557;28;20046;-47
2023/10/02 06:57:16;;;;;;;35.88;20.02;;;;;;;16.30;100.00;101779.94;4991924;28;20042;-46
2023/10/02 06:59:51;;;;;;;38.50;21.40;;;;;;;16.38;100.00;101788.44;4980781;28;20048;-47
2023/10/02 07:02:20;;;;;;;35.78;21.90;;;;;;;16.49;100.00;101803.97;4991945;28;20437;-46
2023/10/02 07:04:47;;;;;;;38.15;20.77;;;;;;;16.29;100.00;101748.97;4983514;28;20037;-44
2023/10/02 07:07:14;;;;;;;34.63;21.48;;;;;;;16.61;100.00;101791.03;4979162;28;20053;-49
2023/10/02 07:09:40;;;;;;;33.80;20.63;;;;;;;16.75;100.00;101798.44;4986760;28;20039;-45
2023/10/02 07:12:08;;;;;;;33.03;20.55;;;;;;;16.77;100.00;101792.13;4974053;28;20445;-48
2023/10/02 07:14:37;;;;;;;36.78;22.05;;;;;;;16.99;100.00;101805.34;4986093;28;20044;-45
2023/10/02 07:17:16;;;;;;;35.47;21.10;;;;;;;16.61;100.00;101718.41;4988051;28;20092;-49
2023/10/02 07:19:48;;;;;;;44.80;21.95;;;;;;;17.13;100.00;101804.75;4986836;28;20144;-48
2023/10/02 07:22:26;;;;;;;39.58;22.58;;;;;;;16.99;100.00;101765.44;4993080;28;20100;-46
2023/10/02 07:24:57;;;;;;;37.72;22.23;;;;;;;17.19;100.00;101788.53;4990163;28;20054;-49
2023/10/02 07:27:24;;;;;;;34.28;20.23;;;;;;;16.82;100.00;101714.81;4991905;28;20121;-45
2023/10/02 07:29:53;;;;;;;34.97;21.25;;;;;;;17.31;100.00;101807.44;4989115;28;20031;-46
2023/10/02 07:32:23;;;;;;;35.65;21.15;;;;;;;17.00;100.00;101753.88;4973919;28;20085;-47
2023/10/02 07:34:50;;;;;;;37.85;21.77;;;;;;;17.43;100.00;101832.63;4971933;28;20046;-47
2023/10/02 07:37:20;;;;;;;33.53;21.27;;;;;;;17.08;100.00;101751.75;4972266;28;20165;-47
2023/10/02 07:39:48;;;;;;;32.37;20.87;;;;;;;17.48;100.00;101824.47;4973712;28;20395;-45
2023/10/02 07:42:16;;;;;;;33.08;21.05;;;;;;;17.16;100.00;101751.41;4988059;28;20038;-45
2023/10/02 07:44:41;;;;;;;33.85;21.17;;;;;;;17.11;100.00;101738.31;4993028;28;20034;-45
2023/10/02 07:47:10;;;;;;;36.30;21.60;;;;;;;17.32;100.00;101774.59;4975525;28;20955;-46
2023/10/02 07:49:39;;;;;;;35.75;21.48;;;;;;;17.74;100.00;101840.16;4992982;28;20034;-44
2023/10/02 07:52:08;;;;;;;37.40;22.25;;;;;;;17.83;100.00;101824.56;4993114;28;20049;-46
2023/10/02 07:54:44;;;;;;;33.30;21.20;;;;;;;17.49;100.00;101751.63;4993020;28;20085;-47
2023/10/02 07:57:13;;;;;;;37.55;21.13;;;;;;;17.32;100.00;101726.69;4990561;28;20034;-48
2023/10/02 07:59:40;;;;;;;35.10;22.60;;;;;;;18.02;100.00;101821.91;4993002;28;20393;-46
2023/10/02 08:02:21;;;;;;;39.08;22.92;;;;;;;18.03;100.00;101815.66;4991189;28;20046;-46
2023/10/02 08:04:48;;;;;;;32.93;21.60;;;;;;;17.39;100.00;101721.94;4992635;28;20034;-46
2023/10/02 08:07:13;;;;;;;35.60;21.30;;;;;;;17.60;100.00;101754.72;4992693;28;20713;-48
2023/10/02 08:09:40;;;;;;;36.30;22.58;;;;;;;18.00;100.00;101829.13;4992596;28;20042;-46
2023/10/02 08:12:08;;;;;;;37.00;24.40;;;;;;;17.79;100.00;101774.22;4992393;28;20485;-48
2023/10/02 08:14:42;;;;;;;36.15;23.10;;;;;;;17.97;100.00;101795.50;4991389;28;20423;-45
2023/10/02 08:17:19;;;;;;;36.60;23.60;;;;;;;17.93;100.00;101761.09;4991274;28;20054;-45
2023/10/02 08:19:54;;;;;;;37.70;23.50;;;;;;;18.23;100.00;101796.91;4992501;28;20047;-46
2023/10/02 08:22:35;;;;;;;34.40;22.63;;;;;;;18.42;100.00;101803.06;4992234;28;20088;-45
2023/10/02 08:25:01;;;;;;;34.40;22.80;;;;;;;18.17;100.00;101733.25;4991344;28;20034;-45
2023/10/02 08:27:27;;;;;;;31.48;22.48;;;;;;;18.63;100.00;101811.81;4992507;28;20038;-46
2023/10/02 08:29:53;;;;;;;35.92;22.55;;;;;;;18.35;100.00;101732.34;4992000;28;20122;-45
2023/10/02 08:32:28;;;;;;;36.67;22.58;;;;;;;18.84;100.00;101807.19;4989845;28;20121;-48
2023/10/02 08:34:54;;;;;;;35.13;22.33;;;;;;;18.92;100.00;101815.66;4991484;28;20034;-48
2023/10/02 08:37:20;;;;;;;34.40;22.88;;;;;;;18.85;100.00;101777.78;4992330;28;20153;-47
2023/10/02 08:39:45;;;;;;;33.83;21.83;;;;;;;19.28;100.00;101827.09;4991839;28;20478;-46
2023/10/02 08:42:10;;;;;;;33.20;21.35;;;;;;;19.40;100.00;101823.81;4990904;28;20050;-46
2023/10/02 08:44:40;;;;;;;33.35;21.55;;;;;;;19.69;100.00;101832.91;4994382;28;20041;-48
2023/10/02 08:47:06;;;;;;;32.95;20.88;;;;;;;19.90;100.00;101829.06;4996234;28;20037;-48
2023/10/02 08:49:34;;;;;;;32.90;20.48;;;;;;;20.27;100.00;101821.69;4989271;28;20118;-44
2023/10/02 08:52:03;;;;;;;32.22;21.70;;;;;;;20.57;100.00;101834.16;4987619;28;20148;-48
2023/10/02 08:54:31;;;;;;;32.40;20.88;;;;;;;20.48;100.00;101802.59;4983510;28;20460;-48
2023/10/02 08:57:08;;;;;;;31.83;19.73;;;;;;;20.77;100.00;101831.19;4988827;28;20054;-48
2023/10/02 08:59:38;;;;;;;31.98;20.30;;;;;;;20.68;100.00;101788.91;4994401;28;20460;-48
2023/10/02 09:02:15;;;;;;;32.10;20.20;;;;;;;20.90;100.00;101779.59;4994175;28;20070;-48
2023/10/02 09:04:42;;;;;;;29.67;19.55;;;;;;;21.02;100.00;101789.53;4994749;28;20044;-45
2023/10/02 09:07:24;;;;;;;26.27;19.15;;;;;;;21.80;100.00;101830.16;4995680;28;20065;-48
2023/10/02 09:10:12;;;;;;;29.88;18.58;;;;;;;21.85;100.00;101773.59;4995846;28;20038;-48
2023/10/02 09:12:48;;;;;;;28.80;19.05;;;;;;;21.84;100.00;101766.50;4994620;28;20038;-50
2023/10/02 09:15:25;;;;;;;27.55;17.58;;;;;;;21.63;100.00;101747.28;4994565;28;20041;-46
2023/10/02 09:17:50;;;;;;;29.17;17.67;;;;;;;22.02;100.00;101837.72;4995732;28;20045;-46
2023/10/02 09:20:16;;;;;;;30.70;19.73;;;;;;;21.61;100.00;101804.63;4995836;28;20467;-45
2023/10/02 09:23:07;;;;;;;29.35;18.27;;;;;;;21.47;100.00;101784.06;4994254;28;20053;-45
2023/10/02 09:25:37;;;;;;;26.17;16.00;;;;;;;21.64;100.00;101783.84;4994653;28;20030;-46
2023/10/02 09:28:13;;;;;;;25.38;17.55;;;;;;;22.09;100.00;101835.53;4994498;28;20033;-46
2023/10/02 09:30:41;;;;;;;24.88;16.00;;;;;;;22.36;100.00;101833.69;4994455;28;20046;-46
2023/10/02 09:33:08;;;;;;;22.80;15.30;;;;;;;22.61;100.00;101841.00;4995448;28;20061;-47
2023/10/02 09:35:42;;;;;;;28.73;16.77;;;;;;;22.71;100.00;101836.75;4994064;28;20042;-47
2023/10/02 09:38:15;;;;;;;22.10;14.48;;;;;;;22.60;100.00;101831.22;4994309;28;20137;-45
2023/10/02 09:43:35;;;;;;;21.98;15.52;;;;;;;22.37;100.00;101800.56;4995345;28;20050;-46
2023/10/02 09:46:06;;;;;;;26.90;16.88;;;;;;;22.37;100.00;101811.28;4994089;28;20046;-45
2023/10/02 09:51:30;;;;;;;22.35;14.85;;;;;;;22.52;100.00;101822.81;4995456;28;20196;-48
2023/10/02 09:54:35;;;;;;;20.90;14.45;;;;;;;22.79;100.00;101794.16;4995205;28;20034;-47
2023/10/02 09:57:17;;;;;;;21.85;14.23;;;;;;;23.14;100.00;101824.81;4972183;28;20398;-44
2023/10/02 09:59:48;;;;;;;22.20;14.25;;;;;;;23.18;100.00;101820.94;4957103;28;20039;-45
2023/10/02 10:05:02;;;;;;;22.63;16.15;;;;;;;23.21;100.00;101828.78;4994042;28;20410;-50
2023/10/02 10:08:33;;;;;;;26.50;15.70;;;;;;;23.23;100.00;101826.00;4994545;28;20097;-47
2023/10/02 10:10:47;;;;;;;25.13;17.42;;;;;;;23.23;100.00;101824.19;4993862;28;20038;-46
2023/10/02 10:13:51;;;;;;;23.98;16.38;;;;;;;23.34;100.00;101829.66;4993969;28;20038;-46
2023/10/02 10:16:20;;;;;;;25.50;17.45;;;;;;;23.45;100.00;101816.38;4993603;28;20054;-47
2023/10/02 10:21:55;;;;;;;24.30;16.98;;;;;;;23.76;100.00;101773.88;4987037;28;20097;-47
2023/10/02 10:24:56;;;;;;;21.95;15.93;;;;;;;24.35;100.00;101840.28;4991791;28;20034;-47
2023/10/02 10:27:39;;;;;;;21.10;15.53;;;;;;;24.15;100.00;101791.59;4993227;28;20033;-48
2023/10/02 10:30:24;;;;;;;22.88;14.52;;;;;;;24.66;100.00;101838.00;4991464;28;20297;-49
2023/10/02 10:33:25;;;;;;;23.52;14.50;;;;;;;25.12;100.00;101841.59;4992569;28;20045;-47
2023/10/02 10:35:51;;;;;;;23.38;14.30;;;;;;;25.30;100.00;101839.31;4989727;28;20079;-49
2023/10/02 10:38:26;;;;;;;25.45;14.20;;;;;;;25.40;100.00;101843.84;4994321;28;20038;-48
2023/10/02 10:41:00;;;;;;;17.27;13.30;;;;;;;25.32;100.00;101840.91;4994394;28;20030;-47
2023/10/02 10:43:55;;;;;;;24.92;14.75;;;;;;;25.69;100.00;101847.81;4993174;28;20437;-49
2023/10/02 10:46:28;;;;;;;21.05;13.77;;;;;;;25.96;100.00;101851.97;4992884;28;20516;-48
2023/10/02 10:49:07;;;;;;;22.02;14.23;;;;;;;26.02;100.00;101827.22;4994184;28;20390;-51
2023/10/02 10:51:36;;;;;;;19.67;12.88;;;;;;;26.18;100.00;101842.03;4994001;28;20125;-47
2023/10/02 10:54:13;;;;;;;21.20;15.73;;;;;;;26.19;100.00;101840.22;4993811;28;20463;-46
2023/10/02 10:56:56;;;;;;;20.27;13.60;;;;;;;26.16;100.00;101808.06;4993735;28;20329;-47
2023/10/02 10:59:24;;;;;;;19.95;12.63;;;;;;;26.25;100.00;101834.31;4992824;28;20045;-47
2023/10/02 11:04:40;;;;;;;18.13;11.45;;;;;;;25.80;100.00;101846.13;4993722;28;20042;-47
2023/10/02 11:07:23;;;;;;;20.23;11.80;;;;;;;25.68;100.00;101839.88;4992454;28;20508;-48
2023/10/02 11:12:54;;;;;;;18.67;11.63;;;;;;;25.09;100.00;101772.66;4992272;28;20061;-50
2023/10/02 11:15:45;;;;;;;21.08;12.95;;;;;;;24.88;100.00;101763.56;4991914;28;20042;-45
2023/10/02 11:18:25;;;;;;;26.27;12.13;;;;;;;25.04;100.00;101812.53;4992258;28;20518;-47
2023/10/02 11:20:57;;;;;;;21.40;12.60;;;;;;;24.53;100.00;101757.28;4993348;28;20049;-44
2023/10/02 11:23:37;;;;;;;21.80;11.70;;;;;;;24.93;100.00;101820.59;4980964;28;20043;-48
2023/10/02 11:26:10;;;;;;;19.67;11.65;;;;;;;25.62;100.00;101811.56;4980117;28;20058;-48
2023/10/02 11:28:36;;;;;;;19.30;12.68;;;;;;;25.94;100.00;101746.91;4986419;28;20034;-50
2023/10/02 11:31:32;;;;;;;17.10;12.75;;;;;;;26.91;100.00;101817.03;4976812;28;20057;-49
2023/10/02 11:34:08;;;;;;;21.98;13.00;;;;;;;27.41;100.00;101820.72;4987533;28;20031;-51
2023/10/02 11:36:37;;;;;;;18.23;11.88;;;;;;;27.81;100.00;101788.34;4973914;28;20034;-49
2023/10/02 11:39:19;;;;;;;19.58;12.55;;;;;;;28.28;100.00;101819.25;4988288;28;20030;-49
2023/10/02 11:41:46;;;;;;;21.40;13.00;;;;;;;28.48;100.00;101792.06;4985443;28;20122;-48
2023/10/02 11:44:12;;;;;;;16.38;11.57;;;;;;;28.81;100.00;101826.00;4978193;28;20022;-48
2023/10/02 11:46:40;;;;;;;17.65;11.82;;;;;;;28.80;100.00;101839.72;4992521;28;20050;-46
2023/10/02 11:49:05;;;;;;;20.00;12.30;;;;;;;28.19;100.00;101752.41;4986543;28;20030;-50
2023/10/02 11:51:31;;;;;;;19.27;11.15;;;;;;;28.38;100.00;101806.56;4985361;28;20089;-46
2023/10/02 11:54:01;;;;;;;15.52;10.13;;;;;;;28.33;100.00;101800.72;4982112;28;20121;-48
2023/10/02 11:56:26;;;;;;;19.08;9.38;;;;;;;27.85;100.00;101749.19;4978148;28;20066;-48
2023/10/02 11:58:52;;;;;;;14.23;9.05;;;;;;;28.00;100.00;101745.09;4988770;28;20077;-46
2023/10/02 12:01:22;;;;;;;20.30;9.70;;;;;;;28.40;100.00;101783.78;4992298;28;20038;-50
2023/10/02 12:03:48;;;;;;;12.73;7.97;;;;;;;28.70;100.00;101792.78;4984387;28;20129;-47
2023/10/02 12:06:14;;;;;;;15.00;8.15;;;;;;;28.69;100.00;101796.50;4983655;28;20497;-46
2023/10/02 12:08:40;;;;;;;14.40;8.65;;;;;;;28.65;100.00;101730.06;4986672;28;20070;-49